Time;durP1;ratioP1;P1;durP2;ratioP2;P2;SDS_P1;SDS_P2;PMS_P1;PMS_P2;Temp;Humidity;BMP_temperature;BMP_pressure;BME280_temperature;BME280_humidity;BME280_pressure;Samples;Min_cycle;Max_cycle;Signal;HPM_P1;HPM_P2
2022/11/25 00:01:39;;;;;;;15.80;9.90;;;6.90;99.90;;;;;;5054036;28;20960;-68
2022/11/25 00:04:05;;;;;;;15.30;11.10;;;7.10;99.90;;;;;;5060149;28;20489;-69
2022/11/25 00:06:34;;;;;;;26.40;10.53;;;7.00;99.90;;;;;;5056184;28;20464;-69
2022/11/25 00:09:04;;;;;;;14.20;9.57;;;7.20;99.90;;;;;;5061456;28;20468;-68
2022/11/25 00:11:32;;;;;;;14.53;9.90;;;7.10;99.90;;;;;;5055327;28;20457;-69
2022/11/25 00:13:59;;;;;;;19.23;9.77;;;7.10;99.90;;;;;;5054809;28;20471;-68
2022/11/25 00:16:27;;;;;;;16.27;9.27;;;7.00;99.90;;;;;;5056438;28;20551;-68
2022/11/25 00:18:56;;;;;;;19.03;9.83;;;7.20;99.90;;;;;;5058214;28;20486;-68
2022/11/25 00:21:24;;;;;;;17.20;9.70;;;7.20;99.90;;;;;;5057408;28;20530;-68
2022/11/25 00:23:52;;;;;;;17.00;9.13;;;7.10;99.90;;;;;;5063872;28;20458;-69
2022/11/25 00:26:19;;;;;;;22.77;9.77;;;7.10;99.90;;;;;;5058759;28;20464;-68
2022/11/25 00:28:47;;;;;;;15.27;8.30;;;7.30;99.90;;;;;;5057694;28;20461;-69
2022/11/25 00:31:16;;;;;;;13.60;8.40;;;7.10;99.90;;;;;;5054160;28;20659;-68
2022/11/25 00:33:45;;;;;;;13.80;8.90;;;7.20;99.90;;;;;;5060044;28;20464;-68
2022/11/25 00:36:16;;;;;;;17.90;8.70;;;7.20;99.90;;;;;;5061233;28;20468;-69
2022/11/25 00:38:44;;;;;;;11.10;8.53;;;7.20;99.90;;;;;;5060053;28;20561;-68
2022/11/25 00:46:40;;;;;;;10.67;7.87;;;7.30;99.90;;;;;;5060174;28;21030;-68
2022/11/25 00:49:09;;;;;;;11.23;7.20;;;7.30;99.90;;;;;;5053719;28;20467;-69
2022/11/25 00:51:36;;;;;;;9.23;7.70;;;7.30;99.90;;;;;;5055346;28;20461;-69
2022/11/25 00:54:03;;;;;;;15.13;8.00;;;7.30;99.90;;;;;;5058883;28;20472;-68
2022/11/25 00:56:30;;;;;;;19.13;8.20;;;7.40;99.90;;;;;;5055913;28;20469;-68
2022/11/25 00:58:57;;;;;;;22.67;8.53;;;7.40;99.90;;;;;;5056582;28;20473;-68
2022/11/25 01:01:24;;;;;;;13.67;8.33;;;7.50;99.90;;;;;;5057371;28;20460;-69
2022/11/25 01:03:51;;;;;;;24.87;8.13;;;7.60;99.90;;;;;;5053459;28;20474;-68
2022/11/25 01:06:20;;;;;;;14.70;8.37;;;7.60;99.90;;;;;;5060185;28;20513;-69
2022/11/25 01:08:47;;;;;;;13.27;7.80;;;7.70;99.90;;;;;;5061068;28;20994;-69
2022/11/25 01:11:16;;;;;;;12.87;7.90;;;7.70;99.90;;;;;;5063931;28;20472;-68
2022/11/25 01:13:44;;;;;;;15.23;8.13;;;7.70;99.90;;;;;;5061040;28;20466;-68
2022/11/25 01:16:13;;;;;;;17.87;8.67;;;7.90;99.90;;;;;;5054673;28;20991;-69
2022/11/25 01:18:41;;;;;;;19.87;8.43;;;7.80;99.90;;;;;;5057731;28;20467;-69
2022/11/25 01:21:09;;;;;;;15.60;8.20;;;8.00;99.90;;;;;;5059810;28;20458;-69
2022/11/25 01:23:38;;;;;;;15.30;7.50;;;7.90;99.90;;;;;;5063708;28;20464;-68
2022/11/25 01:26:07;;;;;;;16.07;8.20;;;7.90;99.90;;;;;;5056898;28;20789;-69
2022/11/25 01:28:33;;;;;;;14.33;9.60;;;8.00;99.90;;;;;;5056020;28;20474;-68
2022/11/25 01:31:02;;;;;;;13.50;7.10;;;8.10;99.90;;;;;;5059331;28;20489;-68
2022/11/25 01:33:31;;;;;;;16.40;8.20;;;8.10;99.90;;;;;;5058824;28;20468;-69
2022/11/25 01:36:01;;;;;;;11.43;7.90;;;8.10;99.90;;;;;;5053113;28;20809;-69
2022/11/25 01:38:28;;;;;;;14.07;7.60;;;8.20;99.90;;;;;;5056563;28;20495;-69
2022/11/25 01:40:57;;;;;;;11.70;7.90;;;8.20;99.90;;;;;;5056824;28;20466;-68
2022/11/25 01:43:24;;;;;;;14.63;8.70;;;8.20;99.90;;;;;;5054178;28;20834;-68
2022/11/25 01:45:51;;;;;;;15.37;8.07;;;8.30;99.90;;;;;;5060740;28;20497;-68
2022/11/25 01:48:24;;;;;;;16.83;8.53;;;8.30;99.90;;;;;;5051042;28;20478;-69
2022/11/25 01:50:51;;;;;;;15.70;8.17;;;8.20;99.90;;;;;;5061257;28;20489;-68
2022/11/25 01:53:20;;;;;;;16.37;9.10;;;8.20;99.90;;;;;;5052353;28;20836;-68
2022/11/25 01:55:52;;;;;;;11.63;8.40;;;8.20;99.90;;;;;;5056101;28;20521;-68
2022/11/25 01:58:25;;;;;;;19.43;8.40;;;8.10;99.90;;;;;;5051587;28;20462;-68
2022/11/25 02:00:52;;;;;;;14.43;7.90;;;8.30;99.90;;;;;;5054896;28;20484;-68
2022/11/25 02:03:22;;;;;;;11.93;8.47;;;8.30;99.90;;;;;;5056617;28;20463;-68
2022/11/25 02:05:54;;;;;;;16.63;8.77;;;8.30;99.90;;;;;;5059038;28;20508;-68
2022/11/25 02:08:23;;;;;;;14.03;8.10;;;8.30;99.90;;;;;;5061970;28;20461;-68
2022/11/25 02:10:52;;;;;;;13.20;8.60;;;8.30;99.90;;;;;;5057314;28;20459;-69
2022/11/25 02:13:22;;;;;;;14.00;8.40;;;8.30;99.90;;;;;;5056274;28;20467;-68
2022/11/25 02:15:50;;;;;;;17.37;10.07;;;8.30;99.90;;;;;;5060626;28;20830;-68
2022/11/25 02:18:17;;;;;;;17.60;8.10;;;8.40;99.90;;;;;;5057871;28;20469;-68
2022/11/25 02:20:43;;;;;;;24.83;9.60;;;8.40;99.90;;;;;;5058597;28;20562;-68
2022/11/25 02:23:24;;;;;;;20.40;9.13;;;8.50;99.90;;;;;;5058978;28;21140;-68
2022/11/25 02:25:52;;;;;;;15.17;9.00;;;8.50;99.90;;;;;;5062257;28;20890;-68
2022/11/25 02:28:23;;;;;;;19.87;8.90;;;8.50;99.90;;;;;;5063886;28;20466;-68
2022/11/25 02:30:51;;;;;;;19.70;10.13;;;8.50;99.90;;;;;;5058947;28;20882;-68
2022/11/25 02:33:19;;;;;;;13.53;8.40;;;8.40;99.90;;;;;;5058564;28;20984;-68
2022/11/25 02:35:48;;;;;;;9.30;7.80;;;8.50;99.90;;;;;;5062779;28;20478;-68
2022/11/25 02:38:18;;;;;;;13.20;9.77;;;8.60;99.90;;;;;;5058583;28;20850;-68
2022/11/25 02:40:48;;;;;;;19.43;10.07;;;8.70;99.90;;;;;;5060946;28;21008;-69
2022/11/25 02:43:17;;;;;;;23.50;9.50;;;8.70;99.90;;;;;;5058030;28;20459;-68
2022/11/25 02:45:56;;;;;;;15.07;9.37;;;8.70;99.90;;;;;;5059289;28;20584;-69
2022/11/25 02:48:24;;;;;;;20.83;10.00;;;8.60;99.90;;;;;;5057260;28;20470;-68
2022/11/25 02:50:52;;;;;;;12.53;8.83;;;8.80;99.90;;;;;;5062017;28;20454;-68
2022/11/25 02:53:21;;;;;;;10.60;9.20;;;8.80;99.90;;;;;;5061446;28;20470;-68
2022/11/25 02:55:50;;;;;;;12.73;9.70;;;8.80;99.90;;;;;;5055068;28;20466;-68
2022/11/25 02:58:19;;;;;;;14.73;10.90;;;8.80;99.90;;;;;;5064268;28;20506;-68
2022/11/25 03:00:46;;;;;;;20.57;10.23;;;8.90;99.90;;;;;;5058969;28;20463;-68
2022/11/25 03:03:14;;;;;;;15.60;9.30;;;8.90;99.90;;;;;;5059269;28;20803;-68
2022/11/25 03:05:41;;;;;;;12.67;8.90;;;8.90;99.90;;;;;;5062432;28;20507;-68
2022/11/25 03:08:09;;;;;;;18.40;8.77;;;9.00;99.90;;;;;;5068123;28;20471;-68
2022/11/25 03:10:37;;;;;;;15.10;9.57;;;9.00;99.90;;;;;;5060234;28;20781;-69
2022/11/25 03:13:05;;;;;;;18.83;11.87;;;8.80;99.90;;;;;;5058276;28;20489;-68
2022/11/25 03:15:33;;;;;;;25.33;12.77;;;8.90;99.90;;;;;;5062692;28;20470;-69
2022/11/25 03:18:00;;;;;;;22.53;15.63;;;8.90;99.90;;;;;;5057302;28;20467;-68
2022/11/25 03:20:27;;;;;;;23.40;19.10;;;8.80;99.90;;;;;;5062142;28;20463;-68
2022/11/25 03:22:55;;;;;;;20.90;19.20;;;8.90;99.90;;;;;;5059906;28;20462;-67
2022/11/25 03:25:22;;;;;;;22.70;18.40;;;8.90;99.90;;;;;;5060582;28;20529;-67
2022/11/25 03:27:48;;;;;;;28.63;19.83;;;8.90;99.90;;;;;;5059155;28;20464;-67
2022/11/25 03:30:18;;;;;;;23.30;19.20;;;8.80;99.90;;;;;;5054713;28;20471;-67
2022/11/25 03:32:47;;;;;;;26.50;18.80;;;8.80;99.90;;;;;;5062250;28;20463;-68
2022/11/25 03:35:15;;;;;;;21.43;19.40;;;8.90;99.90;;;;;;5059689;28;20474;-68
2022/11/25 03:37:43;;;;;;;24.00;20.17;;;8.80;99.90;;;;;;5056643;28;20462;-67
2022/11/25 03:40:12;;;;;;;21.63;19.03;;;8.90;99.90;;;;;;5056941;28;20995;-67
2022/11/25 03:42:40;;;;;;;30.30;19.60;;;8.90;99.90;;;;;;5059618;28;20470;-68
2022/11/25 03:45:09;;;;;;;27.90;24.90;;;9.00;99.90;;;;;;5053199;28;20541;-67
2022/11/25 03:47:36;;;;;;;33.07;24.77;;;9.00;99.90;;;;;;5059280;28;20550;-68
2022/11/25 03:50:05;;;;;;;28.93;25.50;;;9.00;99.90;;;;;;5057716;28;20473;-68
2022/11/25 03:52:32;;;;;;;31.10;24.77;;;9.10;99.90;;;;;;5058470;28;20531;-68
2022/11/25 03:54:59;;;;;;;27.67;25.07;;;9.20;99.90;;;;;;5056567;28;20468;-68
2022/11/25 03:57:26;;;;;;;26.90;24.07;;;9.20;99.90;;;;;;5061558;28;20470;-67
2022/11/25 03:59:53;;;;;;;25.00;23.07;;;9.20;99.90;;;;;;5058527;28;20997;-69
2022/11/25 04:02:20;;;;;;;26.90;24.03;;;9.30;99.90;;;;;;5059777;28;20482;-67
2022/11/25 04:04:47;;;;;;;25.77;23.37;;;9.20;99.90;;;;;;5062292;28;20816;-67
2022/11/25 04:07:15;;;;;;;25.37;23.23;;;9.20;99.90;;;;;;5057279;28;20475;-68
2022/11/25 04:09:42;;;;;;;24.93;22.43;;;9.20;99.90;;;;;;5059809;28;20463;-69
2022/11/25 04:14:56;;;;;;;26.17;23.47;;;9.20;99.90;;;;;;5058902;28;20459;-68
2022/11/25 04:17:22;;;;;;;24.50;22.23;;;9.10;99.90;;;;;;5060321;28;20458;-68
2022/11/25 04:19:49;;;;;;;25.67;21.37;;;9.10;99.90;;;;;;5057200;28;20988;-68
2022/11/25 04:22:17;;;;;;;26.13;21.43;;;9.00;99.90;;;;;;5056642;28;20460;-70
2022/11/25 04:24:44;;;;;;;28.03;22.40;;;8.90;99.90;;;;;;5059202;28;20466;-68
2022/11/25 04:27:11;;;;;;;24.97;22.23;;;8.90;99.90;;;;;;5057991;28;20507;-69
2022/11/25 04:29:39;;;;;;;32.33;22.60;;;8.90;99.90;;;;;;5056614;28;20838;-68
2022/11/25 04:32:06;;;;;;;25.90;23.20;;;8.80;99.90;;;;;;5056554;28;20543;-68
2022/11/25 04:34:33;;;;;;;29.93;22.07;;;8.80;99.90;;;;;;5057116;28;20565;-69
2022/11/25 04:37:00;;;;;;;33.07;22.00;;;8.80;99.90;;;;;;5060067;28;20467;-70
2022/11/25 04:39:28;;;;;;;28.67;21.00;;;8.70;99.90;;;;;;5059609;28;20558;-69
2022/11/25 04:42:30;;;;;;;22.23;20.40;;;8.80;99.90;;;;;;5053463;28;20462;-69
2022/11/25 04:44:54;;;;;;;22.60;20.27;;;8.80;99.90;;;;;;5062786;28;20477;-70
2022/11/25 04:47:21;;;;;;;26.13;18.90;;;8.80;99.90;;;;;;5060981;28;20459;-69
2022/11/25 04:49:48;;;;;;;20.83;18.70;;;8.90;99.90;;;;;;5055562;28;20466;-70
2022/11/25 04:52:14;;;;;;;22.53;19.50;;;8.80;99.90;;;;;;5054997;28;20517;-70
2022/11/25 04:54:44;;;;;;;22.03;20.10;;;8.90;99.90;;;;;;5057622;28;20467;-71
2022/11/25 04:57:13;;;;;;;21.70;19.07;;;9.00;99.90;;;;;;5057774;28;20473;-70
2022/11/25 04:59:39;;;;;;;22.03;20.07;;;9.00;99.90;;;;;;5057073;28;20464;-69
2022/11/25 05:02:06;;;;;;;37.40;19.70;;;9.00;99.90;;;;;;5057692;28;20451;-70
2022/11/25 05:04:32;;;;;;;20.20;18.50;;;9.10;99.90;;;;;;5056397;28;20252;-71
2022/11/25 05:07:00;;;;;;;19.53;17.77;;;9.10;99.90;;;;;;5056755;28;20650;-70
2022/11/25 05:09:26;;;;;;;20.73;18.60;;;9.10;99.90;;;;;;5057126;28;20528;-71
2022/11/25 05:11:57;;;;;;;19.33;17.90;;;9.20;99.90;;;;;;5057602;28;20461;-70
2022/11/25 05:14:24;;;;;;;20.17;18.27;;;9.10;99.90;;;;;;5063751;28;21234;-70
2022/11/25 05:16:51;;;;;;;22.17;19.27;;;9.10;99.90;;;;;;5063075;28;20451;-70
2022/11/25 05:19:18;;;;;;;23.20;19.00;;;9.20;99.90;;;;;;5056404;28;20470;-70
2022/11/25 05:21:45;;;;;;;21.33;19.30;;;9.30;99.90;;;;;;5059034;28;20484;-69
2022/11/25 05:24:12;;;;;;;21.03;18.87;;;9.30;99.90;;;;;;5057712;28;20474;-70
2022/11/25 05:26:39;;;;;;;21.20;19.43;;;9.30;99.90;;;;;;5049785;28;21073;-70
2022/11/25 05:29:07;;;;;;;21.23;19.33;;;9.20;99.90;;;;;;5058163;28;20463;-69
2022/11/25 05:31:33;;;;;;;24.93;19.80;;;9.10;99.90;;;;;;5055088;28;20811;-69
2022/11/25 05:34:01;;;;;;;21.50;19.40;;;9.20;99.90;;;;;;5056896;28;20521;-70
2022/11/25 05:36:28;;;;;;;21.23;19.53;;;9.10;99.90;;;;;;5056459;28;20894;-70
2022/11/25 05:38:56;;;;;;;23.43;21.23;;;9.10;99.90;;;;;;5053917;28;21096;-71
2022/11/25 05:41:24;;;;;;;22.83;20.77;;;9.10;99.90;;;;;;5060306;28;21118;-71
2022/11/25 05:43:51;;;;;;;21.50;19.80;;;9.10;99.90;;;;;;5057629;28;20463;-71
2022/11/25 05:46:21;;;;;;;22.20;20.07;;;9.10;99.90;;;;;;5058707;28;20912;-71
2022/11/25 05:48:48;;;;;;;22.03;19.13;;;9.10;99.90;;;;;;5061677;28;20490;-70
2022/11/25 05:51:15;;;;;;;23.47;21.50;;;9.00;99.90;;;;;;5062370;28;20478;-69
2022/11/25 05:53:41;;;;;;;22.90;20.13;;;9.00;99.90;;;;;;5058010;28;21085;-69
2022/11/25 05:56:10;;;;;;;23.60;21.17;;;8.90;99.90;;;;;;5064727;28;20483;-69
2022/11/25 05:58:37;;;;;;;22.93;20.73;;;8.90;99.90;;;;;;5061223;28;20480;-69
2022/11/25 06:01:07;;;;;;;23.90;21.60;;;8.90;99.90;;;;;;5059631;28;20459;-70
2022/11/25 06:03:36;;;;;;;24.07;21.60;;;8.80;99.90;;;;;;5059107;28;20578;-69
2022/11/25 06:06:04;;;;;;;24.23;21.80;;;8.70;99.90;;;;;;5051275;28;20491;-69
2022/11/25 06:08:32;;;;;;;24.93;22.47;;;8.60;99.90;;;;;;5057928;28;20535;-70
2022/11/25 06:10:59;;;;;;;24.67;22.17;;;8.60;99.90;;;;;;5053542;28;20478;-69
2022/11/25 06:13:26;;;;;;;24.20;22.20;;;8.60;99.90;;;;;;5064327;28;20464;-70
2022/11/25 06:15:53;;;;;;;24.43;22.23;;;8.60;99.90;;;;;;5060986;28;20462;-69
2022/11/25 06:18:19;;;;;;;24.83;22.23;;;8.40;99.90;;;;;;5057952;28;20465;-69
2022/11/25 06:20:56;;;;;;;29.87;22.43;;;8.50;99.90;;;;;;5054651;28;20472;-69
2022/11/25 06:23:23;;;;;;;24.43;22.23;;;8.50;99.90;;;;;;5054994;28;20466;-68
2022/11/25 06:25:50;;;;;;;25.97;23.40;;;8.40;99.90;;;;;;5059756;28;20501;-69
2022/11/25 06:28:17;;;;;;;25.00;22.50;;;8.40;99.90;;;;;;5066785;28;20881;-68
2022/11/25 06:30:43;;;;;;;24.73;22.57;;;8.40;99.90;;;;;;5057507;28;20474;-69
2022/11/25 06:33:11;;;;;;;22.93;20.93;;;8.30;99.90;;;;;;5057862;28;20462;-68
2022/11/25 06:35:39;;;;;;;25.20;22.83;;;8.10;99.90;;;;;;5056451;28;20447;-68
2022/11/25 06:38:07;;;;;;;24.17;21.90;;;8.10;99.90;;;;;;5061427;28;20459;-68
2022/11/25 06:40:34;;;;;;;28.67;24.40;;;8.10;99.90;;;;;;5059867;28;20986;-69
2022/11/25 06:43:00;;;;;;;24.27;21.50;;;8.00;99.90;;;;;;5066561;28;20960;-69
2022/11/25 06:45:27;;;;;;;22.33;20.33;;;7.90;99.90;;;;;;5059656;28;20479;-69
2022/11/25 06:47:54;;;;;;;23.57;21.40;;;7.80;99.90;;;;;;5056637;28;20493;-67
2022/11/25 06:50:21;;;;;;;23.20;20.83;;;7.70;99.90;;;;;;5067791;28;20466;-69
2022/11/25 06:52:48;;;;;;;22.63;21.10;;;7.70;99.90;;;;;;5062007;28;20463;-68
2022/11/25 06:55:16;;;;;;;22.60;20.60;;;7.70;99.90;;;;;;5057185;28;20545;-69
2022/11/25 06:57:43;;;;;;;21.03;19.63;;;7.70;99.90;;;;;;5051029;28;20471;-68
2022/11/25 07:00:10;;;;;;;21.53;19.93;;;7.70;99.90;;;;;;5052358;28;20456;-68
2022/11/25 07:02:37;;;;;;;22.30;20.33;;;7.60;99.90;;;;;;5050078;28;20467;-69
2022/11/25 07:05:04;;;;;;;22.07;20.10;;;7.50;99.90;;;;;;5063850;28;20490;-69
2022/11/25 07:07:31;;;;;;;20.77;19.40;;;7.50;99.90;;;;;;5061822;28;20497;-69
2022/11/25 07:09:58;;;;;;;22.33;20.47;;;7.50;99.90;;;;;;5070147;28;20465;-70
2022/11/25 07:12:27;;;;;;;23.50;21.67;;;7.40;99.90;;;;;;5064440;28;20461;-68
2022/11/25 07:14:54;;;;;;;24.33;22.43;;;7.40;99.90;;;;;;5061307;28;20470;-70
2022/11/25 07:17:21;;;;;;;23.67;21.30;;;7.40;99.90;;;;;;5059483;28;20515;-69
2022/11/25 07:19:48;;;;;;;23.27;21.60;;;7.40;99.90;;;;;;5049683;28;20466;-68
2022/11/25 07:22:15;;;;;;;22.17;20.40;;;7.40;99.90;;;;;;5067147;28;20466;-68
2022/11/25 07:24:42;;;;;;;23.40;19.87;;;7.40;99.90;;;;;;5060989;28;20488;-69
2022/11/25 07:27:08;;;;;;;20.90;19.50;;;7.20;99.90;;;;;;5059742;28;20528;-70
2022/11/25 07:29:37;;;;;;;20.67;19.30;;;7.20;99.90;;;;;;5060169;28;20463;-70
2022/11/25 07:32:04;;;;;;;21.57;19.93;;;7.00;99.90;;;;;;5064136;28;21077;-70
2022/11/25 07:34:31;;;;;;;21.20;19.70;;;7.20;99.90;;;;;;5057070;28;20604;-69
2022/11/25 07:36:58;;;;;;;22.03;20.37;;;7.20;99.90;;;;;;5054218;28;20465;-68
2022/11/25 07:39:26;;;;;;;23.53;21.50;;;7.10;99.90;;;;;;5060959;28;20536;-70
2022/11/25 07:41:54;;;;;;;23.80;20.90;;;7.10;99.90;;;;;;5061013;28;20983;-68
2022/11/25 07:44:21;;;;;;;22.30;20.40;;;7.10;99.90;;;;;;5055891;28;20481;-68
2022/11/25 07:46:50;;;;;;;21.97;19.80;;;7.10;99.90;;;;;;5061116;28;20503;-70
2022/11/25 07:49:19;;;;;;;22.53;20.50;;;7.20;99.90;;;;;;5062780;28;20934;-69
2022/11/25 07:51:49;;;;;;;21.83;19.87;;;7.10;99.90;;;;;;5059725;28;20458;-71
2022/11/25 07:54:16;;;;;;;22.87;20.93;;;7.10;99.90;;;;;;5062722;28;20830;-69
2022/11/25 07:56:44;;;;;;;23.07;20.93;;;7.10;99.90;;;;;;5054569;28;21213;-70
2022/11/25 07:59:13;;;;;;;22.50;20.40;;;7.10;99.90;;;;;;5059978;28;20493;-69
2022/11/25 08:01:41;;;;;;;23.30;20.63;;;7.10;99.90;;;;;;5061953;28;20466;-69
2022/11/25 08:04:11;;;;;;;22.67;20.50;;;7.20;99.90;;;;;;5065682;28;20466;-70
2022/11/25 08:06:41;;;;;;;20.37;18.80;;;7.20;99.90;;;;;;5058562;28;20483;-67
2022/11/25 08:09:09;;;;;;;21.20;19.63;;;7.30;99.90;;;;;;5060550;28;20492;-70
2022/11/25 08:11:38;;;;;;;21.23;19.30;;;7.30;99.90;;;;;;5054045;28;20458;-70
2022/11/25 08:14:05;;;;;;;21.40;19.73;;;7.30;99.90;;;;;;5059620;28;20455;-70
2022/11/25 08:16:33;;;;;;;19.97;18.50;;;7.40;99.90;;;;;;5065434;28;20823;-67
2022/11/25 08:19:02;;;;;;;20.57;18.47;;;7.50;99.90;;;;;;5058245;28;20557;-70
2022/11/25 08:21:31;;;;;;;20.53;18.60;;;7.60;99.90;;;;;;5052554;28;20785;-69
2022/11/25 08:23:58;;;;;;;19.70;18.20;;;7.60;99.90;;;;;;5056999;28;20465;-69
2022/11/25 08:26:29;;;;;;;19.43;17.90;;;7.70;99.90;;;;;;5060823;28;20487;-70
2022/11/25 08:28:57;;;;;;;20.23;18.30;;;7.80;99.90;;;;;;5063857;28;20456;-70
2022/11/25 08:31:26;;;;;;;18.40;16.87;;;7.80;99.90;;;;;;5054612;28;20570;-69
2022/11/25 08:33:53;;;;;;;18.70;17.40;;;7.90;99.90;;;;;;5060473;28;20463;-69
2022/11/25 08:36:21;;;;;;;17.43;15.93;;;8.00;99.90;;;;;;5054834;28;20465;-69
2022/11/25 08:38:53;;;;;;;17.63;16.03;;;8.10;99.90;;;;;;5063417;28;20459;-68
2022/11/25 08:41:23;;;;;;;18.30;16.00;;;8.10;99.90;;;;;;5066603;28;20480;-68
2022/11/25 08:43:50;;;;;;;16.90;15.10;;;8.30;99.90;;;;;;5058444;28;20462;-68
2022/11/25 08:46:19;;;;;;;16.30;15.00;;;8.30;99.90;;;;;;5059917;28;20468;-68
2022/11/25 08:48:48;;;;;;;20.80;17.70;;;8.40;99.90;;;;;;5062336;28;20474;-68
2022/11/25 08:51:17;;;;;;;16.57;15.27;;;8.50;99.90;;;;;;5066804;28;20497;-68
2022/11/25 08:53:46;;;;;;;17.93;15.50;;;8.50;99.90;;;;;;5061931;28;20466;-71
2022/11/25 08:56:14;;;;;;;17.80;15.90;;;8.70;99.90;;;;;;5054063;28;20486;-71
2022/11/25 08:58:42;;;;;;;18.23;16.67;;;8.70;99.90;;;;;;5058810;28;21023;-68
2022/11/25 09:01:09;;;;;;;17.93;16.40;;;8.70;99.90;;;;;;5053597;28;20462;-68
2022/11/25 09:03:38;;;;;;;29.43;16.13;;;8.70;99.90;;;;;;5060998;28;20475;-69
2022/11/25 09:06:07;;;;;;;17.37;15.80;;;8.70;99.90;;;;;;5062703;28;20497;-68
2022/11/25 09:08:34;;;;;;;20.00;15.67;;;8.80;99.90;;;;;;5055742;28;20495;-68
2022/11/25 09:11:02;;;;;;;17.10;15.60;;;8.80;99.90;;;;;;5060236;28;20864;-68
2022/11/25 09:13:30;;;;;;;17.13;15.93;;;8.90;99.90;;;;;;5059611;28;20455;-69
2022/11/25 09:15:57;;;;;;;16.50;15.20;;;8.90;99.90;;;;;;5050981;28;20500;-70
2022/11/25 09:18:25;;;;;;;18.80;15.73;;;9.00;99.90;;;;;;5052691;28;20465;-69
2022/11/25 09:20:52;;;;;;;20.63;17.03;;;9.00;99.90;;;;;;5049903;28;20957;-68
2022/11/25 09:23:19;;;;;;;17.47;15.93;;;9.00;99.90;;;;;;5057783;28;20472;-68
2022/11/25 09:25:51;;;;;;;16.73;15.20;;;9.00;99.90;;;;;;5059092;28;20476;-68
2022/11/25 09:28:18;;;;;;;23.23;16.40;;;9.10;99.90;;;;;;5060188;28;20585;-70
2022/11/25 09:30:47;;;;;;;18.23;15.17;;;9.30;99.90;;;;;;5056469;28;21476;-69
2022/11/25 09:33:14;;;;;;;19.60;15.80;;;9.20;99.90;;;;;;5059004;28;20481;-69
2022/11/25 09:35:41;;;;;;;17.70;16.10;;;9.30;99.90;;;;;;5051856;28;20474;-68
2022/11/25 09:38:08;;;;;;;15.13;14.03;;;9.30;99.90;;;;;;5050396;28;20872;-68
2022/11/25 09:40:43;;;;;;;17.00;15.20;;;9.30;99.90;;;;;;5058061;28;20981;-69
2022/11/25 09:49:02;;;;;;;17.60;15.90;;;9.30;99.90;;;;;;5057745;28;20612;-67
2022/11/25 09:51:36;;;;;;;28.73;16.20;;;9.50;99.90;;;;;;5055157;28;20970;-68
2022/11/25 09:54:09;;;;;;;17.63;15.83;;;9.40;99.90;;;;;;5041766;28;20497;-70
2022/11/25 09:56:42;;;;;;;17.30;14.50;;;9.50;99.90;;;;;;5057568;28;20467;-68
2022/11/25 09:59:16;;;;;;;16.77;15.20;;;9.70;99.90;;;;;;5055057;28;20567;-69
2022/11/25 10:01:48;;;;;;;24.27;15.97;;;9.70;99.90;;;;;;5055728;28;20466;-68
2022/11/25 10:04:20;;;;;;;16.53;15.13;;;9.70;99.90;;;;;;5055889;28;20484;-69
2022/11/25 10:06:52;;;;;;;28.93;15.30;;;9.80;99.90;;;;;;5054320;28;20493;-70
2022/11/25 10:09:24;;;;;;;16.97;15.03;;;9.90;99.90;;;;;;5054917;28;20465;-67
2022/11/25 10:11:53;;;;;;;15.87;14.13;;;10.00;99.90;;;;;;5057958;28;20470;-67
2022/11/25 10:14:28;;;;;;;19.13;15.03;;;10.10;99.90;;;;;;5059087;28;20474;-67
2022/11/25 10:17:07;;;;;;;17.17;14.50;;;10.00;99.90;;;;;;5051471;28;20493;-68
2022/11/25 10:19:46;;;;;;;20.60;13.90;;;10.20;99.90;;;;;;5064604;28;20654;-68
2022/11/25 10:22:25;;;;;;;22.23;13.00;;;10.20;99.90;;;;;;5064248;28;20481;-69
2022/11/25 10:24:56;;;;;;;17.63;13.03;;;10.50;99.90;;;;;;5055398;28;20632;-68
2022/11/25 10:27:28;;;;;;;28.17;13.90;;;10.30;99.90;;;;;;5059247;28;20474;-68
2022/11/25 10:30:03;;;;;;;16.67;12.47;;;10.40;99.90;;;;;;5058052;28;20467;-71
2022/11/25 10:32:40;;;;;;;18.70;13.00;;;10.50;99.90;;;;;;5060792;28;20962;-70
2022/11/25 10:35:18;;;;;;;25.20;13.60;;;10.50;99.90;;;;;;5058817;28;21213;-69
2022/11/25 10:37:49;;;;;;;15.53;13.30;;;10.60;99.90;;;;;;5059630;28;20517;-71
2022/11/25 10:40:16;;;;;;;17.80;12.93;;;10.60;99.90;;;;;;5055975;28;20470;-69
2022/11/25 10:42:43;;;;;;;18.50;13.03;;;10.70;99.90;;;;;;5065452;28;20470;-70
2022/11/25 10:45:12;;;;;;;21.73;14.40;;;10.80;99.90;;;;;;5057582;28;20479;-68
2022/11/25 10:47:57;;;;;;;16.40;12.23;;;10.60;99.90;;;;;;5062020;28;20549;-69
2022/11/25 10:50:32;;;;;;;15.37;13.47;;;10.70;99.90;;;;;;5060562;28;20981;-70
2022/11/25 10:53:03;;;;;;;15.20;13.00;;;10.90;99.90;;;;;;5056164;28;20478;-68
2022/11/25 10:55:31;;;;;;;22.90;12.93;;;11.10;99.90;;;;;;5059153;28;20459;-68
2022/11/25 10:57:58;;;;;;;16.40;12.17;;;11.80;99.90;;;;;;5061217;28;20965;-68
2022/11/25 11:00:31;;;;;;;14.30;12.03;;;11.90;99.90;;;;;;5060067;28;20466;-68
2022/11/25 11:03:12;;;;;;;22.97;11.27;;;11.90;99.90;;;;;;5058811;28;20455;-70
2022/11/25 11:05:46;;;;;;;17.53;11.97;;;12.00;99.90;;;;;;5059333;28;20479;-70
2022/11/25 11:08:19;;;;;;;16.73;12.40;;;12.10;99.90;;;;;;5056807;28;20515;-69
2022/11/25 11:10:46;;;;;;;21.37;13.03;;;12.10;99.90;;;;;;5059528;28;20455;-68
2022/11/25 11:13:24;;;;;;;18.30;13.40;;;11.70;99.90;;;;;;5056199;28;20474;-68
2022/11/25 11:15:52;;;;;;;12.93;11.93;;;11.70;99.90;;;;;;5058273;28;20528;-70
2022/11/25 11:18:27;;;;;;;24.13;12.57;;;11.70;99.90;;;;;;5059375;28;21044;-69
2022/11/25 11:20:56;;;;;;;19.10;14.37;;;11.80;99.90;;;;;;5055647;28;20811;-70
2022/11/25 11:23:23;;;;;;;16.67;12.77;;;11.80;99.90;;;;;;5062174;28;20481;-68
2022/11/25 11:25:59;;;;;;;13.83;12.83;;;11.80;99.90;;;;;;5054786;28;20486;-68
2022/11/25 11:28:31;;;;;;;21.73;13.43;;;11.90;99.90;;;;;;5062093;28;20500;-68
2022/11/25 11:31:01;;;;;;;16.57;13.90;;;12.50;99.90;;;;;;5049790;28;21144;-68
2022/11/25 11:33:34;;;;;;;15.57;13.97;;;13.00;99.90;;;;;;5054991;28;20469;-69
2022/11/25 11:36:10;;;;;;;19.07;14.43;;;12.90;99.90;;;;;;5058180;28;20533;-69
2022/11/25 11:38:45;;;;;;;15.23;13.73;;;12.70;99.90;;;;;;5059737;28;20459;-69
2022/11/25 11:41:19;;;;;;;15.63;13.90;;;12.90;99.90;;;;;;5053579;28;20967;-68
2022/11/25 11:44:05;;;;;;;16.23;14.70;;;12.70;99.90;;;;;;5061673;28;20464;-69
2022/11/25 11:46:43;;;;;;;16.27;14.60;;;12.80;99.90;;;;;;5059811;28;20777;-69
2022/11/25 11:49:37;;;;;;;16.60;14.40;;;12.90;99.90;;;;;;5052810;28;20490;-70
2022/11/25 11:52:10;;;;;;;19.90;14.70;;;13.00;99.90;;;;;;5067036;28;20819;-69
2022/11/25 11:54:44;;;;;;;16.27;14.67;;;13.50;99.90;;;;;;5061207;28;20557;-68
2022/11/25 11:57:21;;;;;;;17.40;14.80;;;13.50;99.90;;;;;;5056631;28;20823;-69
2022/11/25 11:59:52;;;;;;;17.10;15.47;;;13.60;99.90;;;;;;5059650;28;20459;-69
2022/11/25 12:02:31;;;;;;;17.80;16.00;;;13.40;99.90;;;;;;5059283;28;20568;-69
2022/11/25 12:05:11;;;;;;;20.20;15.93;;;13.40;99.90;;;;;;5054325;28;20486;-69
2022/11/25 12:07:45;;;;;;;17.93;16.43;;;13.50;99.90;;;;;;5059464;28;20494;-69
2022/11/25 12:10:19;;;;;;;17.80;16.10;;;13.70;99.90;;;;;;5060801;28;20843;-69
2022/11/25 12:12:54;;;;;;;20.13;16.63;;;14.10;99.90;;;;;;5064050;28;20827;-70
2022/11/25 12:15:28;;;;;;;17.93;16.23;;;13.80;99.90;;;;;;5063469;28;20468;-69
2022/11/25 12:17:59;;;;;;;16.80;15.13;;;13.90;99.90;;;;;;5058487;28;20466;-71
2022/11/25 12:20:37;;;;;;;17.80;15.97;;;13.90;99.90;;;;;;5057651;28;20475;-69
2022/11/25 12:23:10;;;;;;;16.83;15.20;;;13.60;99.90;;;;;;5055924;28;20569;-71
2022/11/25 12:25:40;;;;;;;18.53;16.67;;;13.90;99.90;;;;;;5056364;28;21248;-69
2022/11/25 12:28:12;;;;;;;17.27;15.87;;;13.70;99.90;;;;;;5062322;28;20494;-69
2022/11/25 12:30:44;;;;;;;22.97;15.90;;;13.50;99.90;;;;;;5059339;28;20463;-69
2022/11/25 12:33:19;;;;;;;17.23;15.80;;;13.40;99.90;;;;;;5053042;28;20474;-68
2022/11/25 12:35:57;;;;;;;16.80;15.40;;;13.60;99.90;;;;;;5059706;28;20820;-71
2022/11/25 12:38:32;;;;;;;17.60;16.20;;;13.80;99.90;;;;;;5058910;28;20467;-69
2022/11/25 12:41:12;;;;;;;17.03;15.60;;;14.00;99.90;;;;;;5052403;28;20953;-70
2022/11/25 12:43:44;;;;;;;17.87;15.60;;;14.00;99.90;;;;;;5060420;28;20455;-71
2022/11/25 12:46:24;;;;;;;17.43;15.73;;;14.10;99.90;;;;;;5057562;28;21019;-71
2022/11/25 12:48:53;;;;;;;18.73;15.80;;;14.20;99.90;;;;;;5059987;28;20845;-69
2022/11/25 12:51:47;;;;;;;17.07;15.87;;;14.10;99.90;;;;;;5059544;28;20862;-68
2022/11/25 12:54:27;;;;;;;18.03;16.43;;;13.90;99.90;;;;;;5063364;28;20451;-68
2022/11/25 12:57:33;;;;;;;17.33;15.80;;;13.90;99.90;;;;;;5058129;28;20964;-72
2022/11/25 13:00:11;;;;;;;18.57;16.77;;;13.80;99.90;;;;;;5008717;28;20820;-70
2022/11/25 13:02:56;;;;;;;16.33;15.33;;;13.50;99.90;;;;;;5052556;28;20761;-69